sensor_id;sensor_type;location;lat;lon;timestamp;P1;durP1;ratioP1;P2;durP2;ratioP2
34144;SDS011;69555;53.014;8.886;2023-05-14T00:01:36;14.02;;;8.57;;
34144;SDS011;69555;53.014;8.886;2023-05-14T00:04:02;11.20;;;8.07;;
34144;SDS011;69555;53.014;8.886;2023-05-14T00:06:27;14.95;;;8.27;;
34144;SDS011;69555;53.014;8.886;2023-05-14T00:08:53;10.82;;;7.85;;
34144;SDS011;69555;53.014;8.886;2023-05-14T00:11:18;10.80;;;7.60;;
34144;SDS011;69555;53.014;8.886;2023-05-14T00:13:44;14.98;;;8.02;;
34144;SDS011;69555;53.014;8.886;2023-05-14T00:16:10;12.27;;;7.55;;
34144;SDS011;69555;53.014;8.886;2023-05-14T00:18:35;9.20;;;7.03;;
34144;SDS011;69555;53.014;8.886;2023-05-14T00:21:01;8.18;;;6.40;;
34144;SDS011;69555;53.014;8.886;2023-05-14T00:23:26;11.05;;;6.43;;
34144;SDS011;69555;53.014;8.886;2023-05-14T00:25:52;7.72;;;6.53;;
34144;SDS011;69555;53.014;8.886;2023-05-14T00:28:17;10.43;;;6.20;;
34144;SDS011;69555;53.014;8.886;2023-05-14T00:30:43;14.73;;;8.45;;
34144;SDS011;69555;53.014;8.886;2023-05-14T00:33:08;9.00;;;6.00;;
34144;SDS011;69555;53.014;8.886;2023-05-14T00:35:33;8.45;;;5.97;;
34144;SDS011;69555;53.014;8.886;2023-05-14T00:38:00;11.02;;;6.05;;
34144;SDS011;69555;53.014;8.886;2023-05-14T00:40:26;9.80;;;5.68;;
34144;SDS011;69555;53.014;8.886;2023-05-14T00:42:53;8.68;;;5.53;;
34144;SDS011;69555;53.014;8.886;2023-05-14T00:45:19;10.23;;;5.72;;
34144;SDS011;69555;53.014;8.886;2023-05-14T00:47:46;9.50;;;6.15;;
34144;SDS011;69555;53.014;8.886;2023-05-14T00:50:12;11.18;;;5.63;;
34144;SDS011;69555;53.014;8.886;2023-05-14T00:52:40;10.40;;;6.30;;
34144;SDS011;69555;53.014;8.886;2023-05-14T00:55:06;11.73;;;6.82;;
34144;SDS011;69555;53.014;8.886;2023-05-14T00:57:32;9.50;;;5.72;;
34144;SDS011;69555;53.014;8.886;2023-05-14T01:00:00;7.70;;;5.68;;
34144;SDS011;69555;53.014;8.886;2023-05-14T01:02:25;10.75;;;5.45;;
34144;SDS011;69555;53.014;8.886;2023-05-14T01:04:51;9.23;;;6.03;;
34144;SDS011;69555;53.014;8.886;2023-05-14T01:07:32;12.10;;;6.00;;
34144;SDS011;69555;53.014;8.886;2023-05-14T01:10:12;7.68;;;5.60;;
34144;SDS011;69555;53.014;8.886;2023-05-14T01:17:45;10.02;;;5.40;;
34144;SDS011;69555;53.014;8.886;2023-05-14T01:20:15;11.10;;;6.10;;
34144;SDS011;69555;53.014;8.886;2023-05-14T01:22:41;11.95;;;5.22;;
34144;SDS011;69555;53.014;8.886;2023-05-14T01:25:06;6.88;;;5.43;;
34144;SDS011;69555;53.014;8.886;2023-05-14T01:27:47;7.03;;;5.55;;
34144;SDS011;69555;53.014;8.886;2023-05-14T01:30:23;7.00;;;5.72;;
34144;SDS011;69555;53.014;8.886;2023-05-14T01:32:55;7.60;;;5.20;;
34144;SDS011;69555;53.014;8.886;2023-05-14T01:35:27;6.65;;;5.30;;
34144;SDS011;69555;53.014;8.886;2023-05-14T01:37:56;11.55;;;6.82;;
34144;SDS011;69555;53.014;8.886;2023-05-14T01:40:24;8.00;;;5.78;;
34144;SDS011;69555;53.014;8.886;2023-05-14T01:42:50;13.02;;;6.03;;
34144;SDS011;69555;53.014;8.886;2023-05-14T01:45:20;8.82;;;6.72;;
34144;SDS011;69555;53.014;8.886;2023-05-14T01:47:46;8.43;;;5.80;;
34144;SDS011;69555;53.014;8.886;2023-05-14T01:50:12;8.15;;;6.15;;
34144;SDS011;69555;53.014;8.886;2023-05-14T01:52:37;9.55;;;6.40;;
34144;SDS011;69555;53.014;8.886;2023-05-14T01:55:02;9.20;;;7.00;;
34144;SDS011;69555;53.014;8.886;2023-05-14T01:57:29;11.45;;;7.05;;
34144;SDS011;69555;53.014;8.886;2023-05-14T01:59:54;11.15;;;6.53;;
34144;SDS011;69555;53.014;8.886;2023-05-14T02:02:20;10.63;;;6.05;;
34144;SDS011;69555;53.014;8.886;2023-05-14T02:04:45;7.68;;;6.82;;
34144;SDS011;69555;53.014;8.886;2023-05-14T02:07:11;8.35;;;7.25;;
34144;SDS011;69555;53.014;8.886;2023-05-14T02:09:36;7.75;;;6.40;;
34144;SDS011;69555;53.014;8.886;2023-05-14T02:12:02;11.95;;;7.35;;
34144;SDS011;69555;53.014;8.886;2023-05-14T02:14:27;9.35;;;7.35;;
34144;SDS011;69555;53.014;8.886;2023-05-14T02:16:53;12.00;;;7.45;;
34144;SDS011;69555;53.014;8.886;2023-05-14T02:19:18;8.80;;;7.10;;
34144;SDS011;69555;53.014;8.886;2023-05-14T02:21:43;13.27;;;7.40;;
34144;SDS011;69555;53.014;8.886;2023-05-14T02:24:09;13.52;;;7.85;;
34144;SDS011;69555;53.014;8.886;2023-05-14T02:26:34;12.50;;;6.95;;
34144;SDS011;69555;53.014;8.886;2023-05-14T02:29:00;7.60;;;6.35;;
34144;SDS011;69555;53.014;8.886;2023-05-14T02:31:25;10.75;;;6.30;;
34144;SDS011;69555;53.014;8.886;2023-05-14T02:33:50;14.93;;;7.20;;
34144;SDS011;69555;53.014;8.886;2023-05-14T02:36:16;10.38;;;6.55;;
34144;SDS011;69555;53.014;8.886;2023-05-14T02:38:41;13.57;;;7.10;;
34144;SDS011;69555;53.014;8.886;2023-05-14T02:41:07;8.05;;;6.85;;
34144;SDS011;69555;53.014;8.886;2023-05-14T02:43:32;10.80;;;5.85;;
34144;SDS011;69555;53.014;8.886;2023-05-14T02:45:57;7.93;;;6.82;;
34144;SDS011;69555;53.014;8.886;2023-05-14T02:48:23;12.35;;;6.88;;
34144;SDS011;69555;53.014;8.886;2023-05-14T02:50:49;10.20;;;7.13;;
34144;SDS011;69555;53.014;8.886;2023-05-14T02:53:16;10.02;;;7.13;;
34144;SDS011;69555;53.014;8.886;2023-05-14T02:55:41;12.57;;;6.78;;
34144;SDS011;69555;53.014;8.886;2023-05-14T02:58:06;9.80;;;7.13;;
34144;SDS011;69555;53.014;8.886;2023-05-14T03:00:32;11.23;;;6.97;;
34144;SDS011;69555;53.014;8.886;2023-05-14T03:02:57;9.38;;;6.53;;
34144;SDS011;69555;53.014;8.886;2023-05-14T03:05:23;8.65;;;6.95;;
34144;SDS011;69555;53.014;8.886;2023-05-14T03:07:49;10.68;;;7.40;;
34144;SDS011;69555;53.014;8.886;2023-05-14T03:10:15;8.55;;;7.07;;
34144;SDS011;69555;53.014;8.886;2023-05-14T03:12:41;8.88;;;7.10;;
34144;SDS011;69555;53.014;8.886;2023-05-14T03:15:06;9.70;;;7.47;;
34144;SDS011;69555;53.014;8.886;2023-05-14T03:17:32;9.60;;;7.20;;
34144;SDS011;69555;53.014;8.886;2023-05-14T03:19:58;12.75;;;7.60;;
34144;SDS011;69555;53.014;8.886;2023-05-14T03:22:23;13.00;;;6.82;;
34144;SDS011;69555;53.014;8.886;2023-05-14T03:24:49;9.45;;;7.53;;
34144;SDS011;69555;53.014;8.886;2023-05-14T03:27:14;9.80;;;7.68;;
34144;SDS011;69555;53.014;8.886;2023-05-14T03:29:40;15.10;;;8.77;;
34144;SDS011;69555;53.014;8.886;2023-05-14T03:32:05;12.50;;;7.10;;
34144;SDS011;69555;53.014;8.886;2023-05-14T03:34:31;9.90;;;8.52;;
34144;SDS011;69555;53.014;8.886;2023-05-14T03:36:56;11.75;;;8.10;;
34144;SDS011;69555;53.014;8.886;2023-05-14T03:39:22;17.00;;;8.77;;
34144;SDS011;69555;53.014;8.886;2023-05-14T03:41:47;12.25;;;8.00;;
34144;SDS011;69555;53.014;8.886;2023-05-14T03:44:13;11.07;;;7.82;;
34144;SDS011;69555;53.014;8.886;2023-05-14T03:46:38;9.85;;;8.60;;
34144;SDS011;69555;53.014;8.886;2023-05-14T03:49:05;9.98;;;8.45;;
34144;SDS011;69555;53.014;8.886;2023-05-14T03:51:30;10.45;;;8.02;;
34144;SDS011;69555;53.014;8.886;2023-05-14T03:53:56;12.57;;;8.68;;
34144;SDS011;69555;53.014;8.886;2023-05-14T03:56:22;11.77;;;8.68;;
34144;SDS011;69555;53.014;8.886;2023-05-14T03:58:48;15.90;;;8.88;;
34144;SDS011;69555;53.014;8.886;2023-05-14T04:01:13;12.60;;;7.75;;
34144;SDS011;69555;53.014;8.886;2023-05-14T04:03:39;9.60;;;7.63;;
34144;SDS011;69555;53.014;8.886;2023-05-14T04:06:04;11.95;;;8.57;;
34144;SDS011;69555;53.014;8.886;2023-05-14T04:08:30;10.13;;;8.10;;
34144;SDS011;69555;53.014;8.886;2023-05-14T04:10:55;10.27;;;7.72;;
34144;SDS011;69555;53.014;8.886;2023-05-14T04:13:21;8.75;;;7.78;;
34144;SDS011;69555;53.014;8.886;2023-05-14T04:15:46;8.18;;;7.35;;
34144;SDS011;69555;53.014;8.886;2023-05-14T04:18:11;9.13;;;7.00;;
34144;SDS011;69555;53.014;8.886;2023-05-14T04:20:37;11.40;;;7.63;;
34144;SDS011;69555;53.014;8.886;2023-05-14T04:23:02;8.25;;;7.05;;
34144;SDS011;69555;53.014;8.886;2023-05-14T04:25:27;9.18;;;7.65;;
34144;SDS011;69555;53.014;8.886;2023-05-14T04:27:53;10.05;;;7.35;;
34144;SDS011;69555;53.014;8.886;2023-05-14T04:30:19;9.13;;;6.57;;
34144;SDS011;69555;53.014;8.886;2023-05-14T04:32:44;7.65;;;5.85;;
34144;SDS011;69555;53.014;8.886;2023-05-14T04:35:10;9.23;;;7.45;;
34144;SDS011;69555;53.014;8.886;2023-05-14T04:37:36;7.90;;;6.22;;
34144;SDS011;69555;53.014;8.886;2023-05-14T04:40:03;9.27;;;6.07;;
34144;SDS011;69555;53.014;8.886;2023-05-14T04:42:29;7.63;;;5.50;;
34144;SDS011;69555;53.014;8.886;2023-05-14T04:44:55;8.02;;;5.75;;
34144;SDS011;69555;53.014;8.886;2023-05-14T04:47:20;6.55;;;5.53;;
34144;SDS011;69555;53.014;8.886;2023-05-14T04:49:46;7.90;;;5.18;;
34144;SDS011;69555;53.014;8.886;2023-05-14T04:52:12;6.13;;;5.05;;
34144;SDS011;69555;53.014;8.886;2023-05-14T04:54:37;6.47;;;5.47;;
34144;SDS011;69555;53.014;8.886;2023-05-14T04:57:03;7.10;;;5.88;;
34144;SDS011;69555;53.014;8.886;2023-05-14T04:59:29;9.65;;;5.30;;
34144;SDS011;69555;53.014;8.886;2023-05-14T05:01:55;7.15;;;5.05;;
34144;SDS011;69555;53.014;8.886;2023-05-14T05:04:20;6.57;;;5.60;;
34144;SDS011;69555;53.014;8.886;2023-05-14T05:06:47;7.00;;;5.30;;
34144;SDS011;69555;53.014;8.886;2023-05-14T05:09:13;7.18;;;5.43;;
34144;SDS011;69555;53.014;8.886;2023-05-14T05:11:40;9.00;;;5.20;;
34144;SDS011;69555;53.014;8.886;2023-05-14T05:14:05;6.65;;;5.13;;
34144;SDS011;69555;53.014;8.886;2023-05-14T05:16:31;6.70;;;5.15;;
34144;SDS011;69555;53.014;8.886;2023-05-14T05:18:56;5.57;;;4.70;;
34144;SDS011;69555;53.014;8.886;2023-05-14T05:21:21;7.25;;;5.20;;
34144;SDS011;69555;53.014;8.886;2023-05-14T05:23:47;6.68;;;5.20;;
34144;SDS011;69555;53.014;8.886;2023-05-14T05:26:13;7.57;;;4.80;;
34144;SDS011;69555;53.014;8.886;2023-05-14T05:28:38;14.98;;;4.80;;
34144;SDS011;69555;53.014;8.886;2023-05-14T05:31:04;7.00;;;4.35;;
34144;SDS011;69555;53.014;8.886;2023-05-14T05:33:29;6.40;;;4.63;;
34144;SDS011;69555;53.014;8.886;2023-05-14T05:35:55;6.95;;;4.85;;
34144;SDS011;69555;53.014;8.886;2023-05-14T05:38:20;4.97;;;4.45;;
34144;SDS011;69555;53.014;8.886;2023-05-14T05:40:46;6.43;;;4.75;;
34144;SDS011;69555;53.014;8.886;2023-05-14T05:43:12;5.53;;;4.40;;
34144;SDS011;69555;53.014;8.886;2023-05-14T05:45:38;4.40;;;4.00;;
34144;SDS011;69555;53.014;8.886;2023-05-14T05:48:04;4.78;;;4.25;;
34144;SDS011;69555;53.014;8.886;2023-05-14T05:50:30;5.35;;;4.03;;
34144;SDS011;69555;53.014;8.886;2023-05-14T05:52:56;7.80;;;4.07;;
34144;SDS011;69555;53.014;8.886;2023-05-14T05:55:23;7.15;;;4.85;;
34144;SDS011;69555;53.014;8.886;2023-05-14T05:57:49;8.20;;;4.90;;
34144;SDS011;69555;53.014;8.886;2023-05-14T06:00:14;6.93;;;4.70;;
34144;SDS011;69555;53.014;8.886;2023-05-14T06:02:41;5.05;;;4.40;;
34144;SDS011;69555;53.014;8.886;2023-05-14T06:05:06;12.75;;;5.25;;
34144;SDS011;69555;53.014;8.886;2023-05-14T06:07:33;6.22;;;4.22;;
34144;SDS011;69555;53.014;8.886;2023-05-14T06:09:58;7.03;;;4.60;;
34144;SDS011;69555;53.014;8.886;2023-05-14T06:12:24;4.75;;;4.35;;
34144;SDS011;69555;53.014;8.886;2023-05-14T06:14:49;8.88;;;4.90;;
34144;SDS011;69555;53.014;8.886;2023-05-14T06:17:15;6.43;;;4.97;;
34144;SDS011;69555;53.014;8.886;2023-05-14T06:19:41;4.97;;;4.47;;
34144;SDS011;69555;53.014;8.886;2023-05-14T06:22:06;6.03;;;5.13;;
34144;SDS011;69555;53.014;8.886;2023-05-14T06:24:32;6.07;;;4.88;;
34144;SDS011;69555;53.014;8.886;2023-05-14T06:26:57;6.05;;;4.88;;
34144;SDS011;69555;53.014;8.886;2023-05-14T06:29:23;5.00;;;4.43;;
34144;SDS011;69555;53.014;8.886;2023-05-14T06:31:49;6.32;;;4.72;;
34144;SDS011;69555;53.014;8.886;2023-05-14T06:34:14;7.20;;;4.65;;
34144;SDS011;69555;53.014;8.886;2023-05-14T06:36:40;5.38;;;4.88;;
34144;SDS011;69555;53.014;8.886;2023-05-14T06:39:05;9.07;;;5.47;;
34144;SDS011;69555;53.014;8.886;2023-05-14T06:41:31;7.65;;;5.15;;
34144;SDS011;69555;53.014;8.886;2023-05-14T06:43:56;7.50;;;4.70;;
34144;SDS011;69555;53.014;8.886;2023-05-14T06:46:21;8.40;;;4.93;;
34144;SDS011;69555;53.014;8.886;2023-05-14T06:48:47;6.47;;;4.50;;
34144;SDS011;69555;53.014;8.886;2023-05-14T06:51:12;8.98;;;4.68;;
34144;SDS011;69555;53.014;8.886;2023-05-14T06:53:38;7.53;;;4.85;;
34144;SDS011;69555;53.014;8.886;2023-05-14T06:56:04;6.22;;;4.93;;
34144;SDS011;69555;53.014;8.886;2023-05-14T06:58:30;7.22;;;4.60;;
34144;SDS011;69555;53.014;8.886;2023-05-14T07:00:55;7.07;;;4.82;;
34144;SDS011;69555;53.014;8.886;2023-05-14T07:03:20;5.28;;;4.32;;
34144;SDS011;69555;53.014;8.886;2023-05-14T07:05:46;8.98;;;4.53;;
34144;SDS011;69555;53.014;8.886;2023-05-14T07:08:12;6.35;;;3.88;;
34144;SDS011;69555;53.014;8.886;2023-05-14T07:10:37;5.00;;;4.45;;
34144;SDS011;69555;53.014;8.886;2023-05-14T07:13:03;5.28;;;4.65;;
34144;SDS011;69555;53.014;8.886;2023-05-14T07:15:29;6.05;;;4.13;;
34144;SDS011;69555;53.014;8.886;2023-05-14T07:17:54;4.78;;;4.25;;
34144;SDS011;69555;53.014;8.886;2023-05-14T07:20:20;4.85;;;4.00;;
34144;SDS011;69555;53.014;8.886;2023-05-14T07:22:47;6.93;;;4.57;;
34144;SDS011;69555;53.014;8.886;2023-05-14T07:25:16;10.50;;;4.32;;
34144;SDS011;69555;53.014;8.886;2023-05-14T07:27:42;5.70;;;4.80;;
34144;SDS011;69555;53.014;8.886;2023-05-14T07:30:07;4.32;;;3.70;;
34144;SDS011;69555;53.014;8.886;2023-05-14T07:32:33;4.82;;;4.13;;
34144;SDS011;69555;53.014;8.886;2023-05-14T07:34:58;4.75;;;4.22;;
34144;SDS011;69555;53.014;8.886;2023-05-14T07:37:24;4.40;;;4.00;;
34144;SDS011;69555;53.014;8.886;2023-05-14T07:39:50;5.50;;;4.40;;
34144;SDS011;69555;53.014;8.886;2023-05-14T07:42:16;6.65;;;4.55;;
34144;SDS011;69555;53.014;8.886;2023-05-14T07:44:42;6.00;;;4.20;;
34144;SDS011;69555;53.014;8.886;2023-05-14T07:47:07;5.68;;;3.97;;
34144;SDS011;69555;53.014;8.886;2023-05-14T07:49:33;6.32;;;4.70;;
34144;SDS011;69555;53.014;8.886;2023-05-14T07:51:58;5.53;;;3.97;;
34144;SDS011;69555;53.014;8.886;2023-05-14T07:54:24;5.90;;;4.32;;
34144;SDS011;69555;53.014;8.886;2023-05-14T07:56:49;4.50;;;4.10;;
34144;SDS011;69555;53.014;8.886;2023-05-14T07:59:15;5.03;;;3.53;;
34144;SDS011;69555;53.014;8.886;2023-05-14T08:01:40;5.57;;;3.78;;
34144;SDS011;69555;53.014;8.886;2023-05-14T08:04:06;5.38;;;3.83;;
34144;SDS011;69555;53.014;8.886;2023-05-14T08:06:31;6.15;;;3.67;;
34144;SDS011;69555;53.014;8.886;2023-05-14T08:08:57;3.95;;;3.58;;
34144;SDS011;69555;53.014;8.886;2023-05-14T08:11:22;4.82;;;3.40;;
34144;SDS011;69555;53.014;8.886;2023-05-14T08:13:48;4.25;;;3.25;;
34144;SDS011;69555;53.014;8.886;2023-05-14T08:16:13;4.35;;;3.67;;
34144;SDS011;69555;53.014;8.886;2023-05-14T08:18:39;4.65;;;3.28;;
34144;SDS011;69555;53.014;8.886;2023-05-14T08:21:05;4.72;;;3.45;;
34144;SDS011;69555;53.014;8.886;2023-05-14T08:23:30;7.53;;;3.25;;
34144;SDS011;69555;53.014;8.886;2023-05-14T08:25:55;5.32;;;3.00;;
34144;SDS011;69555;53.014;8.886;2023-05-14T08:28:21;4.93;;;3.85;;
34144;SDS011;69555;53.014;8.886;2023-05-14T08:30:46;4.90;;;3.90;;
34144;SDS011;69555;53.014;8.886;2023-05-14T08:33:12;6.50;;;3.42;;
34144;SDS011;69555;53.014;8.886;2023-05-14T08:35:37;5.25;;;3.47;;
34144;SDS011;69555;53.014;8.886;2023-05-14T08:38:03;6.38;;;3.45;;
34144;SDS011;69555;53.014;8.886;2023-05-14T08:40:28;5.18;;;3.15;;
34144;SDS011;69555;53.014;8.886;2023-05-14T08:42:53;5.75;;;3.90;;
34144;SDS011;69555;53.014;8.886;2023-05-14T08:45:23;3.80;;;3.33;;
34144;SDS011;69555;53.014;8.886;2023-05-14T08:47:51;4.80;;;3.00;;
34144;SDS011;69555;53.014;8.886;2023-05-14T08:50:17;3.75;;;3.22;;
34144;SDS011;69555;53.014;8.886;2023-05-14T08:52:44;3.78;;;3.10;;
34144;SDS011;69555;53.014;8.886;2023-05-14T08:55:10;5.10;;;3.40;;
34144;SDS011;69555;53.014;8.886;2023-05-14T08:57:36;5.75;;;3.63;;
34144;SDS011;69555;53.014;8.886;2023-05-14T09:00:02;4.72;;;3.30;;
34144;SDS011;69555;53.014;8.886;2023-05-14T09:02:32;9.60;;;3.25;;
34144;SDS011;69555;53.014;8.886;2023-05-14T09:05:00;4.70;;;3.22;;
34144;SDS011;69555;53.014;8.886;2023-05-14T09:07:26;7.30;;;3.67;;
34144;SDS011;69555;53.014;8.886;2023-05-14T09:09:52;5.07;;;3.40;;
34144;SDS011;69555;53.014;8.886;2023-05-14T09:12:18;5.65;;;3.30;;
34144;SDS011;69555;53.014;8.886;2023-05-14T09:14:44;5.18;;;3.00;;
34144;SDS011;69555;53.014;8.886;2023-05-14T09:17:10;7.60;;;3.50;;
34144;SDS011;69555;53.014;8.886;2023-05-14T09:19:39;4.90;;;2.85;;
34144;SDS011;69555;53.014;8.886;2023-05-14T09:22:10;3.70;;;3.20;;
34144;SDS011;69555;53.014;8.886;2023-05-14T09:24:37;4.72;;;3.55;;
34144;SDS011;69555;53.014;8.886;2023-05-14T09:27:03;5.68;;;3.92;;
34144;SDS011;69555;53.014;8.886;2023-05-14T09:29:28;3.65;;;3.28;;
34144;SDS011;69555;53.014;8.886;2023-05-14T09:31:55;3.45;;;3.15;;
34144;SDS011;69555;53.014;8.886;2023-05-14T09:34:31;3.30;;;3.00;;
34144;SDS011;69555;53.014;8.886;2023-05-14T09:37:01;4.22;;;3.40;;
34144;SDS011;69555;53.014;8.886;2023-05-14T09:39:28;4.53;;;3.33;;
34144;SDS011;69555;53.014;8.886;2023-05-14T09:41:55;5.78;;;3.13;;
34144;SDS011;69555;53.014;8.886;2023-05-14T09:44:21;4.00;;;2.80;;
34144;SDS011;69555;53.014;8.886;2023-05-14T09:46:47;5.55;;;3.40;;
34144;SDS011;69555;53.014;8.886;2023-05-14T09:49:13;4.85;;;2.97;;
34144;SDS011;69555;53.014;8.886;2023-05-14T09:51:39;7.03;;;2.85;;
34144;SDS011;69555;53.014;8.886;2023-05-14T09:54:05;4.07;;;3.30;;
34144;SDS011;69555;53.014;8.886;2023-05-14T09:56:31;5.13;;;3.35;;
34144;SDS011;69555;53.014;8.886;2023-05-14T09:58:57;4.68;;;3.63;;
34144;SDS011;69555;53.014;8.886;2023-05-14T10:01:23;6.53;;;3.30;;
34144;SDS011;69555;53.014;8.886;2023-05-14T10:03:49;8.38;;;3.45;;
34144;SDS011;69555;53.014;8.886;2023-05-14T10:06:18;7.32;;;3.47;;
34144;SDS011;69555;53.014;8.886;2023-05-14T10:08:46;6.43;;;3.58;;
34144;SDS011;69555;53.014;8.886;2023-05-14T10:11:19;4.35;;;3.13;;
34144;SDS011;69555;53.014;8.886;2023-05-14T10:14:13;4.97;;;3.35;;
34144;SDS011;69555;53.014;8.886;2023-05-14T10:16:43;4.82;;;3.05;;
34144;SDS011;69555;53.014;8.886;2023-05-14T10:19:14;5.35;;;3.22;;
34144;SDS011;69555;53.014;8.886;2023-05-14T10:21:43;4.93;;;3.40;;
34144;SDS011;69555;53.014;8.886;2023-05-14T10:24:09;4.95;;;2.92;;
34144;SDS011;69555;53.014;8.886;2023-05-14T10:26:36;4.32;;;3.25;;
34144;SDS011;69555;53.014;8.886;2023-05-14T10:29:05;8.35;;;3.15;;
34144;SDS011;69555;53.014;8.886;2023-05-14T10:37:20;5.32;;;3.25;;
34144;SDS011;69555;53.014;8.886;2023-05-14T10:39:51;5.43;;;3.85;;
34144;SDS011;69555;53.014;8.886;2023-05-14T10:42:34;3.53;;;3.03;;
34144;SDS011;69555;53.014;8.886;2023-05-14T10:45:05;3.45;;;3.15;;
34144;SDS011;69555;53.014;8.886;2023-05-14T10:47:36;5.20;;;2.85;;
34144;SDS011;69555;53.014;8.886;2023-05-14T10:50:07;5.40;;;3.10;;
34144;SDS011;69555;53.014;8.886;2023-05-14T10:52:34;5.28;;;2.97;;
34144;SDS011;69555;53.014;8.886;2023-05-14T10:55:00;6.35;;;2.58;;
34144;SDS011;69555;53.014;8.886;2023-05-14T10:57:34;5.80;;;2.97;;
34144;SDS011;69555;53.014;8.886;2023-05-14T11:00:02;4.75;;;2.55;;
34144;SDS011;69555;53.014;8.886;2023-05-14T11:02:31;4.93;;;3.58;;
34144;SDS011;69555;53.014;8.886;2023-05-14T11:07:32;6.72;;;4.25;;
34144;SDS011;69555;53.014;8.886;2023-05-14T11:12:25;5.82;;;3.05;;
34144;SDS011;69555;53.014;8.886;2023-05-14T11:14:51;6.50;;;3.38;;
34144;SDS011;69555;53.014;8.886;2023-05-14T11:17:17;3.63;;;3.28;;
34144;SDS011;69555;53.014;8.886;2023-05-14T11:19:44;8.40;;;3.45;;
34144;SDS011;69555;53.014;8.886;2023-05-14T11:22:10;4.25;;;3.28;;
34144;SDS011;69555;53.014;8.886;2023-05-14T11:24:38;6.85;;;3.60;;
34144;SDS011;69555;53.014;8.886;2023-05-14T11:27:05;5.28;;;3.70;;
34144;SDS011;69555;53.014;8.886;2023-05-14T11:29:32;4.38;;;3.53;;
34144;SDS011;69555;53.014;8.886;2023-05-14T11:31:57;3.92;;;3.42;;
34144;SDS011;69555;53.014;8.886;2023-05-14T11:34:23;4.80;;;3.35;;
34144;SDS011;69555;53.014;8.886;2023-05-14T11:36:48;5.60;;;3.30;;
34144;SDS011;69555;53.014;8.886;2023-05-14T11:39:17;4.78;;;3.35;;
34144;SDS011;69555;53.014;8.886;2023-05-14T11:41:45;4.55;;;3.72;;
34144;SDS011;69555;53.014;8.886;2023-05-14T11:44:11;5.32;;;3.47;;
34144;SDS011;69555;53.014;8.886;2023-05-14T11:46:36;7.38;;;3.35;;
34144;SDS011;69555;53.014;8.886;2023-05-14T11:49:05;4.95;;;3.38;;
34144;SDS011;69555;53.014;8.886;2023-05-14T11:51:31;3.97;;;3.23;;
34144;SDS011;69555;53.014;8.886;2023-05-14T11:53:56;6.82;;;3.05;;
34144;SDS011;69555;53.014;8.886;2023-05-14T11:56:25;6.68;;;3.13;;
34144;SDS011;69555;53.014;8.886;2023-05-14T11:58:55;4.45;;;3.33;;
34144;SDS011;69555;53.014;8.886;2023-05-14T12:01:22;3.83;;;3.28;;
34144;SDS011;69555;53.014;8.886;2023-05-14T12:03:47;6.60;;;3.28;;
34144;SDS011;69555;53.014;8.886;2023-05-14T12:06:14;6.38;;;3.85;;
34144;SDS011;69555;53.014;8.886;2023-05-14T12:08:40;6.53;;;2.63;;
34144;SDS011;69555;53.014;8.886;2023-05-14T12:11:05;6.50;;;3.60;;
34144;SDS011;69555;53.014;8.886;2023-05-14T12:13:33;5.15;;;3.50;;
34144;SDS011;69555;53.014;8.886;2023-05-14T12:16:00;6.88;;;2.97;;
34144;SDS011;69555;53.014;8.886;2023-05-14T12:18:27;5.80;;;3.47;;
34144;SDS011;69555;53.014;8.886;2023-05-14T12:20:54;6.40;;;3.30;;
34144;SDS011;69555;53.014;8.886;2023-05-14T12:23:29;5.07;;;3.20;;
34144;SDS011;69555;53.014;8.886;2023-05-14T12:26:00;5.90;;;3.30;;
34144;SDS011;69555;53.014;8.886;2023-05-14T12:28:26;6.82;;;3.33;;
34144;SDS011;69555;53.014;8.886;2023-05-14T12:30:55;3.67;;;2.85;;
34144;SDS011;69555;53.014;8.886;2023-05-14T12:33:21;3.60;;;3.10;;
34144;SDS011;69555;53.014;8.886;2023-05-14T12:35:47;10.25;;;3.58;;
34144;SDS011;69555;53.014;8.886;2023-05-14T12:38:13;4.28;;;3.85;;
34144;SDS011;69555;53.014;8.886;2023-05-14T12:40:39;7.75;;;3.47;;
34144;SDS011;69555;53.014;8.886;2023-05-14T12:43:04;4.88;;;3.22;;
34144;SDS011;69555;53.014;8.886;2023-05-14T12:45:30;4.55;;;3.85;;
34144;SDS011;69555;53.014;8.886;2023-05-14T12:47:55;4.68;;;2.90;;
34144;SDS011;69555;53.014;8.886;2023-05-14T12:50:21;6.78;;;3.72;;
34144;SDS011;69555;53.014;8.886;2023-05-14T12:52:46;4.95;;;3.08;;
34144;SDS011;69555;53.014;8.886;2023-05-14T12:55:12;3.75;;;3.38;;
34144;SDS011;69555;53.014;8.886;2023-05-14T12:57:37;3.95;;;3.45;;
34144;SDS011;69555;53.014;8.886;2023-05-14T13:00:03;7.45;;;3.60;;
34144;SDS011;69555;53.014;8.886;2023-05-14T13:02:32;4.95;;;3.40;;
34144;SDS011;69555;53.014;8.886;2023-05-14T13:04:58;3.80;;;2.95;;
34144;SDS011;69555;53.014;8.886;2023-05-14T13:07:26;9.15;;;3.45;;
34144;SDS011;69555;53.014;8.886;2023-05-14T13:09:53;5.68;;;3.30;;
34144;SDS011;69555;53.014;8.886;2023-05-14T13:12:19;4.68;;;3.65;;
34144;SDS011;69555;53.014;8.886;2023-05-14T13:14:44;5.32;;;3.42;;
34144;SDS011;69555;53.014;8.886;2023-05-14T13:17:10;3.60;;;3.13;;
34144;SDS011;69555;53.014;8.886;2023-05-14T13:19:35;4.25;;;3.28;;
34144;SDS011;69555;53.014;8.886;2023-05-14T13:22:01;4.95;;;3.33;;
34144;SDS011;69555;53.014;8.886;2023-05-14T13:24:26;4.93;;;3.20;;
34144;SDS011;69555;53.014;8.886;2023-05-14T13:26:51;5.28;;;3.45;;
34144;SDS011;69555;53.014;8.886;2023-05-14T13:29:17;4.63;;;3.20;;
34144;SDS011;69555;53.014;8.886;2023-05-14T13:31:42;3.50;;;3.20;;
34144;SDS011;69555;53.014;8.886;2023-05-14T13:34:08;4.03;;;2.53;;
34144;SDS011;69555;53.014;8.886;2023-05-14T13:36:34;5.35;;;2.58;;
34144;SDS011;69555;53.014;8.886;2023-05-14T13:39:03;9.68;;;4.47;;
34144;SDS011;69555;53.014;8.886;2023-05-14T13:41:29;7.03;;;3.15;;
34144;SDS011;69555;53.014;8.886;2023-05-14T13:43:58;5.65;;;3.38;;
34144;SDS011;69555;53.014;8.886;2023-05-14T13:46:24;3.22;;;2.70;;
34144;SDS011;69555;53.014;8.886;2023-05-14T13:48:49;8.18;;;3.95;;
34144;SDS011;69555;53.014;8.886;2023-05-14T13:51:15;3.90;;;3.47;;
34144;SDS011;69555;53.014;8.886;2023-05-14T13:53:40;11.27;;;3.83;;
34144;SDS011;69555;53.014;8.886;2023-05-14T13:56:06;4.28;;;3.25;;
34144;SDS011;69555;53.014;8.886;2023-05-14T13:58:32;3.42;;;2.88;;
34144;SDS011;69555;53.014;8.886;2023-05-14T14:00:58;5.45;;;3.33;;
34144;SDS011;69555;53.014;8.886;2023-05-14T14:03:23;5.25;;;3.30;;
34144;SDS011;69555;53.014;8.886;2023-05-14T14:05:49;4.53;;;3.30;;
34144;SDS011;69555;53.014;8.886;2023-05-14T14:08:15;5.78;;;3.20;;
34144;SDS011;69555;53.014;8.886;2023-05-14T14:10:41;4.65;;;3.22;;
34144;SDS011;69555;53.014;8.886;2023-05-14T14:13:07;7.25;;;2.92;;
34144;SDS011;69555;53.014;8.886;2023-05-14T14:15:33;8.70;;;3.45;;
34144;SDS011;69555;53.014;8.886;2023-05-14T14:17:59;5.95;;;3.30;;
34144;SDS011;69555;53.014;8.886;2023-05-14T14:20:24;4.10;;;2.80;;
34144;SDS011;69555;53.014;8.886;2023-05-14T14:22:49;5.07;;;3.10;;
34144;SDS011;69555;53.014;8.886;2023-05-14T14:25:15;4.43;;;3.50;;
34144;SDS011;69555;53.014;8.886;2023-05-14T14:27:40;4.03;;;3.00;;
34144;SDS011;69555;53.014;8.886;2023-05-14T14:30:07;4.95;;;3.20;;
34144;SDS011;69555;53.014;8.886;2023-05-14T14:32:39;4.43;;;3.03;;
34144;SDS011;69555;53.014;8.886;2023-05-14T14:35:05;5.90;;;3.00;;
34144;SDS011;69555;53.014;8.886;2023-05-14T14:37:31;7.57;;;3.53;;
34144;SDS011;69555;53.014;8.886;2023-05-14T14:39:57;5.97;;;3.22;;
34144;SDS011;69555;53.014;8.886;2023-05-14T14:42:22;8.65;;;4.47;;
34144;SDS011;69555;53.014;8.886;2023-05-14T14:44:47;5.78;;;4.05;;
34144;SDS011;69555;53.014;8.886;2023-05-14T14:47:13;11.43;;;4.13;;
34144;SDS011;69555;53.014;8.886;2023-05-14T14:49:38;5.47;;;3.65;;
34144;SDS011;69555;53.014;8.886;2023-05-14T14:52:04;3.65;;;3.33;;
34144;SDS011;69555;53.014;8.886;2023-05-14T14:54:29;5.45;;;3.03;;
34144;SDS011;69555;53.014;8.886;2023-05-14T14:56:54;6.78;;;3.10;;